Terminal Aerodrome Forecast
Issued by NWS Twin Cities, MN

Home | Current Version | Previous Version | Graphics & Text | Print | Product List | Glossary On
Versions: 1 2 3 4 5 6 7 8 9 10 11 12 13 14 15 16 17 18 19 20 21
000
FTUS43 KMPX 211100
TAFSTC
TAF
KSTC 211131Z 2112/2212 19005KT P6SM SCT200
     FM212000 18010G17KT P6SM SCT010 BKN025
     FM220200 20010KT P6SM SCT005 OVC010
     FM220600 21007KT 5SM BR OVC005=

USA.gov is the U.S. government's official web portal to all federal, state and local government web resources and services.